sensor_id;sensor_type;location;lat;lon;timestamp;pressure;altitude;pressure_sealevel;temperature;humidity
61035;BME280;46916;40.564;-7.958;2023-05-12T00:01:58;97636.38;;;16.77;38.51
61035;BME280;46916;40.564;-7.958;2023-05-12T00:03:59;97644.81;;;16.81;38.33
61035;BME280;46916;40.564;-7.958;2023-05-12T00:06:00;97635.72;;;16.83;38.51
61035;BME280;46916;40.564;-7.958;2023-05-12T00:08:03;97649.78;;;16.92;38.38
61035;BME280;46916;40.564;-7.958;2023-05-12T00:10:04;97636.88;;;16.97;38.51
61035;BME280;46916;40.564;-7.958;2023-05-12T00:12:05;97642.34;;;17.04;38.53
61035;BME280;46916;40.564;-7.958;2023-05-12T00:14:05;97643.84;;;17.06;38.67
61035;BME280;46916;40.564;-7.958;2023-05-12T00:16:06;97635.91;;;17.06;38.52
61035;BME280;46916;40.564;-7.958;2023-05-12T00:18:07;97636.06;;;17.05;38.58
61035;BME280;46916;40.564;-7.958;2023-05-12T00:20:08;97634.91;;;17.07;38.63
61035;BME280;46916;40.564;-7.958;2023-05-12T00:22:10;97641.22;;;17.06;38.54
61035;BME280;46916;40.564;-7.958;2023-05-12T00:24:11;97634.59;;;17.02;38.50
61035;BME280;46916;40.564;-7.958;2023-05-12T00:26:11;97639.88;;;17.02;38.62
61035;BME280;46916;40.564;-7.958;2023-05-12T00:28:12;97642.34;;;17.04;38.62
61035;BME280;46916;40.564;-7.958;2023-05-12T00:30:13;97640.84;;;17.01;38.63
61035;BME280;46916;40.564;-7.958;2023-05-12T00:32:14;97641.22;;;16.98;38.55
61035;BME280;46916;40.564;-7.958;2023-05-12T00:34:15;97642.19;;;16.97;38.55
61035;BME280;46916;40.564;-7.958;2023-05-12T00:36:15;97637.72;;;16.98;38.53
61035;BME280;46916;40.564;-7.958;2023-05-12T00:38:16;97642.53;;;16.94;38.72
61035;BME280;46916;40.564;-7.958;2023-05-12T00:40:17;97635.41;;;16.87;38.62
61035;BME280;46916;40.564;-7.958;2023-05-12T00:42:17;97631.09;;;16.77;38.77
61035;BME280;46916;40.564;-7.958;2023-05-12T00:44:18;97626.75;;;16.68;38.99
61035;BME280;46916;40.564;-7.958;2023-05-12T00:46:19;97634.50;;;16.53;38.79
61035;BME280;46916;40.564;-7.958;2023-05-12T00:48:20;97638.78;;;16.46;39.30
61035;BME280;46916;40.564;-7.958;2023-05-12T00:50:21;97625.88;;;16.35;39.27
61035;BME280;46916;40.564;-7.958;2023-05-12T00:52:22;97626.66;;;16.27;39.76
61035;BME280;46916;40.564;-7.958;2023-05-12T00:54:25;97625.19;;;16.25;39.72
61035;BME280;46916;40.564;-7.958;2023-05-12T00:56:26;97616.91;;;16.28;39.80
61035;BME280;46916;40.564;-7.958;2023-05-12T00:58:27;97618.72;;;16.27;39.78
61035;BME280;46916;40.564;-7.958;2023-05-12T01:00:28;97623.19;;;16.27;39.93
61035;BME280;46916;40.564;-7.958;2023-05-12T01:02:29;97614.28;;;16.28;39.96
61035;BME280;46916;40.564;-7.958;2023-05-12T01:04:31;97602.75;;;16.29;39.58
61035;BME280;46916;40.564;-7.958;2023-05-12T01:06:37;97613.13;;;16.30;40.14
61035;BME280;46916;40.564;-7.958;2023-05-12T01:08:43;97614.28;;;16.28;40.02
61035;BME280;46916;40.564;-7.958;2023-05-12T01:10:45;97611.50;;;16.29;40.15
61035;BME280;46916;40.564;-7.958;2023-05-12T01:12:49;97603.06;;;16.34;40.16
61035;BME280;46916;40.564;-7.958;2023-05-12T01:14:52;97599.75;;;16.40;40.04
61035;BME280;46916;40.564;-7.958;2023-05-12T01:16:57;97597.63;;;16.44;39.91
61035;BME280;46916;40.564;-7.958;2023-05-12T01:19:06;97602.78;;;16.45;39.93
61035;BME280;46916;40.564;-7.958;2023-05-12T01:21:10;97600.13;;;16.45;39.73
61035;BME280;46916;40.564;-7.958;2023-05-12T01:23:12;97603.44;;;16.47;39.74
61035;BME280;46916;40.564;-7.958;2023-05-12T01:25:18;97604.25;;;16.48;39.88
61035;BME280;46916;40.564;-7.958;2023-05-12T01:27:23;97603.25;;;16.49;39.95
61035;BME280;46916;40.564;-7.958;2023-05-12T01:29:26;97604.94;;;16.50;39.58
61035;BME280;46916;40.564;-7.958;2023-05-12T01:31:28;97597.81;;;16.50;39.64
61035;BME280;46916;40.564;-7.958;2023-05-12T01:33:30;97597.81;;;16.50;39.83
61035;BME280;46916;40.564;-7.958;2023-05-12T01:35:32;97599.47;;;16.51;39.70
61035;BME280;46916;40.564;-7.958;2023-05-12T01:37:34;97601.09;;;16.52;39.78
61035;BME280;46916;40.564;-7.958;2023-05-12T01:39:37;97601.09;;;16.52;39.75
61035;BME280;46916;40.564;-7.958;2023-05-12T01:41:39;97598.44;;;16.44;39.81
61035;BME280;46916;40.564;-7.958;2023-05-12T01:43:41;97590.50;;;16.36;39.95
61035;BME280;46916;40.564;-7.958;2023-05-12T01:45:42;97599.75;;;16.32;40.16
61035;BME280;46916;40.564;-7.958;2023-05-12T01:47:43;97592.97;;;16.21;40.13
61035;BME280;46916;40.564;-7.958;2023-05-12T01:49:44;97594.41;;;16.16;40.29
61035;BME280;46916;40.564;-7.958;2023-05-12T01:51:48;97595.06;;;16.01;40.62
61035;BME280;46916;40.564;-7.958;2023-05-12T01:53:55;97583.66;;;16.01;40.46
61035;BME280;46916;40.564;-7.958;2023-05-12T01:55:55;97584.59;;;15.92;40.79
61035;BME280;46916;40.564;-7.958;2023-05-12T01:57:58;97590.38;;;15.87;40.99
61035;BME280;46916;40.564;-7.958;2023-05-12T01:59:59;97585.59;;;15.91;40.85
61035;BME280;46916;40.564;-7.958;2023-05-12T02:02:00;97582.59;;;15.85;40.79
61035;BME280;46916;40.564;-7.958;2023-05-12T02:04:04;97579.28;;;15.83;41.18
61035;BME280;46916;40.564;-7.958;2023-05-12T02:06:07;97577.63;;;15.82;41.14
61035;BME280;46916;40.564;-7.958;2023-05-12T02:08:09;97576.00;;;15.81;41.21
61035;BME280;46916;40.564;-7.958;2023-05-12T02:10:10;97570.03;;;15.79;41.34
61035;BME280;46916;40.564;-7.958;2023-05-12T02:12:11;97572.22;;;15.84;41.15
61035;BME280;46916;40.564;-7.958;2023-05-12T02:14:11;97576.00;;;15.81;41.41
61035;BME280;46916;40.564;-7.958;2023-05-12T02:16:12;97576.00;;;15.81;41.31
61035;BME280;46916;40.564;-7.958;2023-05-12T02:18:14;97581.47;;;15.88;41.42
61035;BME280;46916;40.564;-7.958;2023-05-12T02:20:16;97580.81;;;15.94;41.33
61035;BME280;46916;40.564;-7.958;2023-05-12T02:22:16;97573.41;;;15.98;41.28
61035;BME280;46916;40.564;-7.958;2023-05-12T02:24:17;97581.03;;;16.01;41.28
61035;BME280;46916;40.564;-7.958;2023-05-12T02:26:18;97570.28;;;16.02;41.27
61035;BME280;46916;40.564;-7.958;2023-05-12T02:28:20;97572.75;;;16.04;41.20
61035;BME280;46916;40.564;-7.958;2023-05-12T02:30:22;97570.78;;;16.06;41.06
61035;BME280;46916;40.564;-7.958;2023-05-12T02:32:23;97569.78;;;16.07;41.16
61035;BME280;46916;40.564;-7.958;2023-05-12T02:34:27;97577.91;;;16.05;41.13
61035;BME280;46916;40.564;-7.958;2023-05-12T02:36:30;97576.72;;;16.08;41.08
61035;BME280;46916;40.564;-7.958;2023-05-12T02:38:31;97569.66;;;16.08;41.09
61035;BME280;46916;40.564;-7.958;2023-05-12T02:40:32;97567.16;;;16.07;41.09
61035;BME280;46916;40.564;-7.958;2023-05-12T02:42:33;97567.97;;;16.07;41.20
61035;BME280;46916;40.564;-7.958;2023-05-12T02:44:35;97565.19;;;16.09;41.27
61035;BME280;46916;40.564;-7.958;2023-05-12T02:46:36;97563.38;;;16.09;41.32
61035;BME280;46916;40.564;-7.958;2023-05-12T02:48:37;97565.19;;;16.09;41.23
61035;BME280;46916;40.564;-7.958;2023-05-12T02:50:38;97571.28;;;16.01;41.38
61035;BME280;46916;40.564;-7.958;2023-05-12T02:52:38;97562.00;;;15.89;41.63
61035;BME280;46916;40.564;-7.958;2023-05-12T02:54:39;97564.44;;;15.82;41.87
61035;BME280;46916;40.564;-7.958;2023-05-12T02:56:40;97559.94;;;15.75;42.05
61035;BME280;46916;40.564;-7.958;2023-05-12T02:58:41;97552.72;;;15.77;42.17
61035;BME280;46916;40.564;-7.958;2023-05-12T03:00:41;97559.13;;;15.74;42.17
61035;BME280;46916;40.564;-7.958;2023-05-12T03:02:42;97554.84;;;15.73;42.23
61035;BME280;46916;40.564;-7.958;2023-05-12T03:04:43;97562.25;;;15.70;42.14
61035;BME280;46916;40.564;-7.958;2023-05-12T03:06:44;97552.50;;;15.70;42.30
61035;BME280;46916;40.564;-7.958;2023-05-12T03:08:45;97550.84;;;15.69;42.42
61035;BME280;46916;40.564;-7.958;2023-05-12T03:10:46;97552.81;;;15.67;42.45
61035;BME280;46916;40.564;-7.958;2023-05-12T03:12:47;97555.63;;;15.66;42.65
61035;BME280;46916;40.564;-7.958;2023-05-12T03:14:49;97558.09;;;15.67;42.74
61035;BME280;46916;40.564;-7.958;2023-05-12T03:16:50;97549.84;;;15.70;42.90
61035;BME280;46916;40.564;-7.958;2023-05-12T03:18:51;97547.84;;;15.64;43.07
61035;BME280;46916;40.564;-7.958;2023-05-12T03:20:51;97552.75;;;15.59;43.27
61035;BME280;46916;40.564;-7.958;2023-05-12T03:22:55;97553.22;;;15.54;43.31
61035;BME280;46916;40.564;-7.958;2023-05-12T03:24:55;97557.19;;;15.58;43.22
61035;BME280;46916;40.564;-7.958;2023-05-12T03:26:56;97548.31;;;15.59;43.42
61035;BME280;46916;40.564;-7.958;2023-05-12T03:28:57;97547.47;;;15.59;43.52
61035;BME280;46916;40.564;-7.958;2023-05-12T03:30:58;97544.13;;;15.49;43.73
61035;BME280;46916;40.564;-7.958;2023-05-12T03:32:59;97544.44;;;15.46;43.70
61035;BME280;46916;40.564;-7.958;2023-05-12T03:35:00;97534.66;;;15.38;44.22
61035;BME280;46916;40.564;-7.958;2023-05-12T03:37:00;97535.63;;;15.29;44.34
61035;BME280;46916;40.564;-7.958;2023-05-12T03:39:02;97540.84;;;15.21;44.63
61035;BME280;46916;40.564;-7.958;2023-05-12T03:41:06;97534.53;;;15.14;44.87
61035;BME280;46916;40.564;-7.958;2023-05-12T03:43:08;97538.47;;;15.09;45.08
61035;BME280;46916;40.564;-7.958;2023-05-12T03:45:09;97537.81;;;15.07;45.34
61035;BME280;46916;40.564;-7.958;2023-05-12T03:47:10;97539.41;;;15.00;45.30
61035;BME280;46916;40.564;-7.958;2023-05-12T03:49:10;97540.38;;;14.99;45.61
61035;BME280;46916;40.564;-7.958;2023-05-12T03:51:11;97541.69;;;14.95;45.84
61035;BME280;46916;40.564;-7.958;2023-05-12T03:53:12;97540.84;;;14.95;45.80
61035;BME280;46916;40.564;-7.958;2023-05-12T03:55:12;97547.44;;;14.91;45.72
61035;BME280;46916;40.564;-7.958;2023-05-12T03:57:13;97552.31;;;14.85;46.08
61035;BME280;46916;40.564;-7.958;2023-05-12T03:59:14;97548.25;;;14.73;46.24
61035;BME280;46916;40.564;-7.958;2023-05-12T04:01:15;97549.19;;;14.64;46.37
61035;BME280;46916;40.564;-7.958;2023-05-12T04:03:16;97542.72;;;14.58;46.60
61035;BME280;46916;40.564;-7.958;2023-05-12T04:05:17;97548.28;;;14.55;46.88
61035;BME280;46916;40.564;-7.958;2023-05-12T04:07:17;97552.22;;;14.51;47.03
61035;BME280;46916;40.564;-7.958;2023-05-12T04:09:18;97548.47;;;14.44;47.03
61035;BME280;46916;40.564;-7.958;2023-05-12T04:11:20;97543.38;;;14.43;47.19
61035;BME280;46916;40.564;-7.958;2023-05-12T04:13:21;97543.22;;;14.44;47.18
61035;BME280;46916;40.564;-7.958;2023-05-12T04:15:22;97542.91;;;14.47;46.88
61035;BME280;46916;40.564;-7.958;2023-05-12T04:17:22;97545.00;;;14.53;46.70
61035;BME280;46916;40.564;-7.958;2023-05-12T04:19:23;97536.81;;;14.65;46.80
61035;BME280;46916;40.564;-7.958;2023-05-12T04:21:24;97528.19;;;14.54;46.87
61035;BME280;46916;40.564;-7.958;2023-05-12T04:23:24;97533.81;;;14.59;46.85
61035;BME280;46916;40.564;-7.958;2023-05-12T04:25:25;97533.81;;;14.59;46.77
61035;BME280;46916;40.564;-7.958;2023-05-12T04:27:26;97535.34;;;14.62;46.85
61035;BME280;46916;40.564;-7.958;2023-05-12T04:29:27;97531.19;;;14.59;46.81
61035;BME280;46916;40.564;-7.958;2023-05-12T04:31:28;97529.84;;;14.55;46.84
61035;BME280;46916;40.564;-7.958;2023-05-12T04:33:29;97545.81;;;14.54;46.80
61035;BME280;46916;40.564;-7.958;2023-05-12T04:35:30;97541.66;;;14.51;47.17
61035;BME280;46916;40.564;-7.958;2023-05-12T04:37:31;97548.91;;;14.49;47.15
61035;BME280;46916;40.564;-7.958;2023-05-12T04:39:32;97544.56;;;14.48;47.09
61035;BME280;46916;40.564;-7.958;2023-05-12T04:41:32;97543.31;;;14.52;47.01
61035;BME280;46916;40.564;-7.958;2023-05-12T04:43:35;97541.66;;;14.51;46.89
61035;BME280;46916;40.564;-7.958;2023-05-12T04:45:37;97550.81;;;14.47;46.90
61035;BME280;46916;40.564;-7.958;2023-05-12T04:47:37;97546.16;;;14.41;47.07
61035;BME280;46916;40.564;-7.958;2023-05-12T04:49:38;97555.03;;;14.40;47.13
61035;BME280;46916;40.564;-7.958;2023-05-12T04:51:39;97549.56;;;14.33;47.40
61035;BME280;46916;40.564;-7.958;2023-05-12T04:53:41;97554.00;;;14.33;47.52
61035;BME280;46916;40.564;-7.958;2023-05-12T04:55:42;97561.38;;;14.29;47.44
61035;BME280;46916;40.564;-7.958;2023-05-12T04:57:45;97555.56;;;14.26;47.62
61035;BME280;46916;40.564;-7.958;2023-05-12T04:59:46;97551.28;;;14.25;47.53
61035;BME280;46916;40.564;-7.958;2023-05-12T05:01:47;97558.34;;;14.24;47.63
61035;BME280;46916;40.564;-7.958;2023-05-12T05:03:48;97559.94;;;14.17;47.69
61035;BME280;46916;40.564;-7.958;2023-05-12T05:05:49;97548.03;;;14.13;47.91
61035;BME280;46916;40.564;-7.958;2023-05-12T05:07:50;97551.78;;;14.10;47.83
61035;BME280;46916;40.564;-7.958;2023-05-12T05:09:51;97546.88;;;14.16;47.81
61035;BME280;46916;40.564;-7.958;2023-05-12T05:11:52;97547.88;;;14.15;47.99
61035;BME280;46916;40.564;-7.958;2023-05-12T05:13:52;97546.34;;;14.12;48.01
61035;BME280;46916;40.564;-7.958;2023-05-12T05:15:54;97553.75;;;14.08;48.06
61035;BME280;46916;40.564;-7.958;2023-05-12T05:17:57;97548.78;;;14.05;48.10
61035;BME280;46916;40.564;-7.958;2023-05-12T05:19:59;97545.53;;;14.11;48.00
61035;BME280;46916;40.564;-7.958;2023-05-12T05:22:02;97544.78;;;14.19;47.87
61035;BME280;46916;40.564;-7.958;2023-05-12T05:24:05;97544.50;;;14.22;47.94
61035;BME280;46916;40.564;-7.958;2023-05-12T05:26:06;97547.78;;;14.24;47.75
61035;BME280;46916;40.564;-7.958;2023-05-12T05:28:06;97547.66;;;14.26;47.70
61035;BME280;46916;40.564;-7.958;2023-05-12T05:30:08;97548.78;;;14.23;47.78
61035;BME280;46916;40.564;-7.958;2023-05-12T05:32:10;97557.84;;;14.21;47.93
61035;BME280;46916;40.564;-7.958;2023-05-12T05:34:12;97554.78;;;14.16;47.96
61035;BME280;46916;40.564;-7.958;2023-05-12T05:36:13;97550.59;;;14.23;47.90
61035;BME280;46916;40.564;-7.958;2023-05-12T05:38:14;97549.59;;;14.24;47.76
61035;BME280;46916;40.564;-7.958;2023-05-12T05:40:15;97547.78;;;14.24;47.90
61035;BME280;46916;40.564;-7.958;2023-05-12T05:42:15;97553.91;;;14.25;47.82
61035;BME280;46916;40.564;-7.958;2023-05-12T05:44:16;97546.16;;;14.23;47.78
61035;BME280;46916;40.564;-7.958;2023-05-12T05:46:17;97548.03;;;14.31;47.60
61035;BME280;46916;40.564;-7.958;2023-05-12T05:48:18;97548.13;;;14.39;47.53
61035;BME280;46916;40.564;-7.958;2023-05-12T05:50:20;97552.38;;;14.50;47.40
61035;BME280;46916;40.564;-7.958;2023-05-12T05:52:21;97547.63;;;14.53;47.17
61035;BME280;46916;40.564;-7.958;2023-05-12T05:54:24;97539.41;;;14.56;47.17
61035;BME280;46916;40.564;-7.958;2023-05-12T05:56:25;97544.72;;;14.65;47.20
61035;BME280;46916;40.564;-7.958;2023-05-12T05:58:27;97550.22;;;14.71;46.94
61035;BME280;46916;40.564;-7.958;2023-05-12T06:00:29;97543.69;;;14.75;46.81
61035;BME280;46916;40.564;-7.958;2023-05-12T06:02:30;97556.84;;;14.75;46.84
61035;BME280;46916;40.564;-7.958;2023-05-12T06:04:32;97544.13;;;14.71;47.19
61035;BME280;46916;40.564;-7.958;2023-05-12T06:06:33;97551.69;;;14.66;46.99
61035;BME280;46916;40.564;-7.958;2023-05-12T06:08:34;97551.63;;;14.57;47.29
61035;BME280;46916;40.564;-7.958;2023-05-12T06:10:34;97561.22;;;14.49;47.68
61035;BME280;46916;40.564;-7.958;2023-05-12T06:12:35;97558.06;;;14.45;47.64
61035;BME280;46916;40.564;-7.958;2023-05-12T06:14:35;97554.06;;;14.41;47.86
61035;BME280;46916;40.564;-7.958;2023-05-12T06:16:36;97554.06;;;14.41;48.16
61035;BME280;46916;40.564;-7.958;2023-05-12T06:18:37;97563.09;;;14.38;48.38
61035;BME280;46916;40.564;-7.958;2023-05-12T06:20:38;97572.03;;;14.28;48.57
61035;BME280;46916;40.564;-7.958;2023-05-12T06:22:39;97569.47;;;14.18;48.89
61035;BME280;46916;40.564;-7.958;2023-05-12T06:24:43;97573.56;;;14.12;49.15
61035;BME280;46916;40.564;-7.958;2023-05-12T06:26:44;97577.84;;;14.13;49.00
61035;BME280;46916;40.564;-7.958;2023-05-12T06:28:44;97575.09;;;14.05;49.39
61035;BME280;46916;40.564;-7.958;2023-05-12T06:30:45;97574.13;;;14.06;49.34
61035;BME280;46916;40.564;-7.958;2023-05-12T06:32:46;97564.88;;;14.02;49.39
61035;BME280;46916;40.564;-7.958;2023-05-12T06:34:46;97574.66;;;14.10;49.44
61035;BME280;46916;40.564;-7.958;2023-05-12T06:36:47;97575.19;;;14.13;49.12
61035;BME280;46916;40.564;-7.958;2023-05-12T06:38:48;97581.53;;;14.21;49.27
61035;BME280;46916;40.564;-7.958;2023-05-12T06:40:50;97575.00;;;14.25;49.42
61035;BME280;46916;40.564;-7.958;2023-05-12T06:42:51;97568.88;;;14.24;49.45
61035;BME280;46916;40.564;-7.958;2023-05-12T06:44:54;97573.03;;;14.27;49.37
61035;BME280;46916;40.564;-7.958;2023-05-12T06:46:55;97569.94;;;14.31;49.21
61035;BME280;46916;40.564;-7.958;2023-05-12T06:48:56;97565.72;;;14.38;49.00
61035;BME280;46916;40.564;-7.958;2023-05-12T06:50:57;97571.25;;;14.45;48.80
61035;BME280;46916;40.564;-7.958;2023-05-12T06:53:02;97567.03;;;14.52;48.98
61035;BME280;46916;40.564;-7.958;2023-05-12T06:55:03;97564.69;;;14.67;48.82
61035;BME280;46916;40.564;-7.958;2023-05-12T06:57:05;97562.34;;;14.82;48.61
61035;BME280;46916;40.564;-7.958;2023-05-12T06:59:05;97565.41;;;14.95;48.23
61035;BME280;46916;40.564;-7.958;2023-05-12T07:01:06;97562.00;;;15.03;48.15
61035;BME280;46916;40.564;-7.958;2023-05-12T07:03:07;97556.56;;;15.04;48.10
61035;BME280;46916;40.564;-7.958;2023-05-12T07:05:09;97562.06;;;15.11;48.20
61035;BME280;46916;40.564;-7.958;2023-05-12T07:07:10;97567.00;;;15.14;47.89
61035;BME280;46916;40.564;-7.958;2023-05-12T07:09:10;97562.13;;;15.19;47.56
61035;BME280;46916;40.564;-7.958;2023-05-12T07:11:11;97560.34;;;15.28;47.59
61035;BME280;46916;40.564;-7.958;2023-05-12T07:13:12;97559.94;;;15.41;47.23
61035;BME280;46916;40.564;-7.958;2023-05-12T07:15:12;97551.38;;;15.47;47.31
61035;BME280;46916;40.564;-7.958;2023-05-12T07:17:13;97548.69;;;15.65;49.60
61035;BME280;46916;40.564;-7.958;2023-05-12T07:19:14;97558.88;;;15.94;49.82
61035;BME280;46916;40.564;-7.958;2023-05-12T07:21:14;97559.94;;;16.17;49.72
61035;BME280;46916;40.564;-7.958;2023-05-12T07:23:15;97557.81;;;16.37;49.36
61035;BME280;46916;40.564;-7.958;2023-05-12T07:25:16;97559.16;;;16.49;46.65
61035;BME280;46916;40.564;-7.958;2023-05-12T07:27:17;97556.97;;;16.45;47.53
61035;BME280;46916;40.564;-7.958;2023-05-12T07:29:18;97550.88;;;16.44;46.99
61035;BME280;46916;40.564;-7.958;2023-05-12T07:31:19;97544.13;;;16.50;48.14
61035;BME280;46916;40.564;-7.958;2023-05-12T07:33:19;97550.06;;;16.60;47.42
61035;BME280;46916;40.564;-7.958;2023-05-12T07:35:20;97549.56;;;16.56;46.83
61035;BME280;46916;40.564;-7.958;2023-05-12T07:37:21;97551.06;;;16.59;47.16
61035;BME280;46916;40.564;-7.958;2023-05-12T07:39:22;97552.38;;;16.63;46.54
61035;BME280;46916;40.564;-7.958;2023-05-12T07:41:23;97543.13;;;16.59;46.38
61035;BME280;46916;40.564;-7.958;2023-05-12T07:43:23;97549.41;;;16.58;46.63
61035;BME280;46916;40.564;-7.958;2023-05-12T07:45:24;97546.78;;;16.58;46.71
61035;BME280;46916;40.564;-7.958;2023-05-12T07:47:25;97547.41;;;16.60;46.72
61035;BME280;46916;40.564;-7.958;2023-05-12T07:49:27;97541.81;;;16.63;46.84
61035;BME280;46916;40.564;-7.958;2023-05-12T07:51:28;97546.41;;;16.61;46.38
61035;BME280;46916;40.564;-7.958;2023-05-12T07:53:29;97550.88;;;16.52;45.87
61035;BME280;46916;40.564;-7.958;2023-05-12T07:55:30;97547.59;;;16.42;46.27
61035;BME280;46916;40.564;-7.958;2023-05-12T07:57:32;97542.78;;;16.38;46.54
61035;BME280;46916;40.564;-7.958;2023-05-12T07:59:33;97551.22;;;16.41;46.33
61035;BME280;46916;40.564;-7.958;2023-05-12T08:01:34;97551.03;;;16.34;46.02
61035;BME280;46916;40.564;-7.958;2023-05-12T08:03:34;97543.59;;;16.30;45.79
61035;BME280;46916;40.564;-7.958;2023-05-12T08:05:35;97544.22;;;16.24;45.84
61035;BME280;46916;40.564;-7.958;2023-05-12T08:07:36;97542.75;;;16.21;45.59
61035;BME280;46916;40.564;-7.958;2023-05-12T08:09:37;97540.94;;;16.22;45.30
61035;BME280;46916;40.564;-7.958;2023-05-12T08:11:38;97546.38;;;16.20;44.62
61035;BME280;46916;40.564;-7.958;2023-05-12T08:13:39;97551.50;;;16.14;44.78
61035;BME280;46916;40.564;-7.958;2023-05-12T08:15:39;97548.34;;;16.10;44.71
61035;BME280;46916;40.564;-7.958;2023-05-12T08:17:40;97545.72;;;16.18;43.61
61035;BME280;46916;40.564;-7.958;2023-05-12T08:19:41;97549.88;;;16.21;44.22
61035;BME280;46916;40.564;-7.958;2023-05-12T08:21:41;97543.59;;;16.30;44.62
61035;BME280;46916;40.564;-7.958;2023-05-12T08:23:42;97546.59;;;16.43;44.52
61035;BME280;46916;40.564;-7.958;2023-05-12T08:25:44;97551.88;;;16.51;43.77
61035;BME280;46916;40.564;-7.958;2023-05-12T08:27:44;97547.25;;;16.53;41.97
61035;BME280;46916;40.564;-7.958;2023-05-12T08:29:45;97550.88;;;16.44;42.89
61035;BME280;46916;40.564;-7.958;2023-05-12T08:31:46;97549.53;;;16.40;42.94
61035;BME280;46916;40.564;-7.958;2023-05-12T08:33:46;97556.66;;;16.48;42.14
61035;BME280;46916;40.564;-7.958;2023-05-12T08:35:47;97562.94;;;16.39;42.37
61035;BME280;46916;40.564;-7.958;2023-05-12T08:37:48;97553.19;;;16.31;42.20
61035;BME280;46916;40.564;-7.958;2023-05-12T08:39:49;97558.63;;;16.29;42.45
61035;BME280;46916;40.564;-7.958;2023-05-12T08:44:08;97565.06;;;16.27;42.30
61035;BME280;46916;40.564;-7.958;2023-05-12T08:46:11;97564.72;;;16.22;42.23
61035;BME280;46916;40.564;-7.958;2023-05-12T08:48:13;97561.41;;;16.20;42.20
61035;BME280;46916;40.564;-7.958;2023-05-12T08:50:16;97559.94;;;16.25;42.41
61035;BME280;46916;40.564;-7.958;2023-05-12T08:52:20;97555.81;;;16.23;42.26
61035;BME280;46916;40.564;-7.958;2023-05-12T08:54:23;97562.44;;;16.35;42.22
61035;BME280;46916;40.564;-7.958;2023-05-12T08:56:26;97556.16;;;16.36;42.25
61035;BME280;46916;40.564;-7.958;2023-05-12T08:58:27;97552.69;;;16.44;42.78
61035;BME280;46916;40.564;-7.958;2023-05-12T09:00:29;97552.69;;;16.52;42.65
61035;BME280;46916;40.564;-7.958;2023-05-12T09:02:30;97555.53;;;16.58;42.15
61035;BME280;46916;40.564;-7.958;2023-05-12T09:04:31;97553.88;;;16.66;42.71
61035;BME280;46916;40.564;-7.958;2023-05-12T09:06:32;97549.59;;;16.81;41.67
61035;BME280;46916;40.564;-7.958;2023-05-12T09:08:35;97553.75;;;16.75;41.63
61035;BME280;46916;40.564;-7.958;2023-05-12T09:10:36;97557.00;;;16.69;42.37
61035;BME280;46916;40.564;-7.958;2023-05-12T09:12:38;97556.56;;;16.74;41.85
61035;BME280;46916;40.564;-7.958;2023-05-12T09:14:39;97553.22;;;16.72;41.64
61035;BME280;46916;40.564;-7.958;2023-05-12T09:16:46;97554.25;;;16.79;41.72
61035;BME280;46916;40.564;-7.958;2023-05-12T09:18:51;97555.25;;;16.78;41.42
61035;BME280;46916;40.564;-7.958;2023-05-12T09:20:52;97555.84;;;16.72;41.52
61035;BME280;46916;40.564;-7.958;2023-05-12T09:22:53;97561.13;;;16.72;41.78
61035;BME280;46916;40.564;-7.958;2023-05-12T09:24:55;97555.25;;;16.78;41.15
61035;BME280;46916;40.564;-7.958;2023-05-12T09:26:56;97549.94;;;16.78;41.46
61035;BME280;46916;40.564;-7.958;2023-05-12T09:29:06;97555.56;;;16.83;42.29
61035;BME280;46916;40.564;-7.958;2023-05-12T09:31:17;97555.88;;;16.88;41.48
61035;BME280;46916;40.564;-7.958;2023-05-12T09:33:18;97549.25;;;16.92;41.39
61035;BME280;46916;40.564;-7.958;2023-05-12T09:35:19;97551.91;;;17.00;41.17
61035;BME280;46916;40.564;-7.958;2023-05-12T09:37:19;97560.84;;;16.99;41.22
61035;BME280;46916;40.564;-7.958;2023-05-12T09:39:28;97557.50;;;17.05;40.77
61035;BME280;46916;40.564;-7.958;2023-05-12T09:41:39;97550.91;;;17.01;41.00
61035;BME280;46916;40.564;-7.958;2023-05-12T09:43:44;97549.94;;;16.94;40.72
61035;BME280;46916;40.564;-7.958;2023-05-12T09:45:45;97546.44;;;16.94;41.28
61035;BME280;46916;40.564;-7.958;2023-05-12T09:47:49;97554.38;;;17.02;41.46
61035;BME280;46916;40.564;-7.958;2023-05-12T09:49:50;97547.59;;;17.07;41.10
61035;BME280;46916;40.564;-7.958;2023-05-12T09:51:54;97549.75;;;17.12;41.11
61035;BME280;46916;40.564;-7.958;2023-05-12T09:53:56;97548.72;;;17.21;41.36
61035;BME280;46916;40.564;-7.958;2023-05-12T09:55:57;97547.38;;;17.33;40.49
61035;BME280;46916;40.564;-7.958;2023-05-12T09:57:59;97552.19;;;17.30;40.36
61035;BME280;46916;40.564;-7.958;2023-05-12T10:00:02;97539.13;;;17.28;40.60
61035;BME280;46916;40.564;-7.958;2023-05-12T10:02:07;97540.25;;;17.34;40.70
61035;BME280;46916;40.564;-7.958;2023-05-12T10:04:08;97548.34;;;17.41;40.55
61035;BME280;46916;40.564;-7.958;2023-05-12T10:06:31;97542.56;;;17.37;39.87
61035;BME280;46916;40.564;-7.958;2023-05-12T10:08:36;97541.91;;;17.43;39.89
61035;BME280;46916;40.564;-7.958;2023-05-12T10:10:38;97539.75;;;17.39;39.37
61035;BME280;46916;40.564;-7.958;2023-05-12T10:12:39;97538.28;;;17.36;39.77
61035;BME280;46916;40.564;-7.958;2023-05-12T10:14:41;97535.97;;;17.33;39.57
61035;BME280;46916;40.564;-7.958;2023-05-12T10:16:45;97521.91;;;17.32;39.10
61035;BME280;46916;40.564;-7.958;2023-05-12T10:18:47;97529.34;;;17.37;39.50
61035;BME280;46916;40.564;-7.958;2023-05-12T10:20:51;97535.09;;;17.49;39.40
61035;BME280;46916;40.564;-7.958;2023-05-12T10:22:53;97529.44;;;17.60;38.29
61035;BME280;46916;40.564;-7.958;2023-05-12T10:24:55;97537.19;;;17.62;38.61
61035;BME280;46916;40.564;-7.958;2023-05-12T10:26:57;97537.50;;;17.67;38.13
61035;BME280;46916;40.564;-7.958;2023-05-12T10:28:58;97533.91;;;17.60;38.37
61035;BME280;46916;40.564;-7.958;2023-05-12T10:31:00;97532.22;;;17.58;38.81
61035;BME280;46916;40.564;-7.958;2023-05-12T10:33:00;97533.91;;;17.60;38.21
61035;BME280;46916;40.564;-7.958;2023-05-12T10:35:11;97533.19;;;17.66;38.56
61035;BME280;46916;40.564;-7.958;2023-05-12T10:37:12;97533.16;;;17.74;38.72
61035;BME280;46916;40.564;-7.958;2023-05-12T10:39:13;97531.53;;;17.73;38.36